Buoy 46928

sailwx.info

Track history (hours):
 
Tides and Currents Weather Stations Pressure Air Temp Water Temp Dewpoint Dewpoint Depression Visibility Wind Speed Wind Dir Waves Ship Positions

Drifting buoy 46928

Last reported at 2015-Jul-06 14:40 UTC. Time now 2015-Jul-06 15:39 UTC.
Position N 54°10' W 135°47'.

Barometer 1022.1 mb
Water temperature 13.3 ° C

Date/timePositionNaut miles runAvg speedWind from/ knotsBaromVisibWave heightAir tempDewpointWater temp
2015-Jul-06 14:40N 54°10' W 135°47'2 0.2 1022.1 13.3
2015-Jul-06 02:40N 54°11' W 135°48'2 0.8 1022.6 13.8
2015-Jul-06 00:40N 54°12' W 135°51'1 0.3 1023.3 13.8
2015-Jul-05 21:40N 54°12' W 135°50'2 0.5 1023.7 13.8
2015-Jul-05 18:40N 54°13' W 135°52'0 0.0 1024.4 13.7
2015-Jul-05 17:40N 54°13' W 135°52'0 0.1 1024.3 13.7
2015-Jul-05 11:40N 54°13' W 135°52'3 0.4 1023.9 13.7
2015-Jul-05 04:40N 54°16' W 135°52'1 0.4 1025.3 14.2
2015-Jul-05 02:40N 54°16' W 135°54'2 0.8 1025.1 14.4
2015-Jul-04 23:40N 54°14' W 135°54'1 0.7 1025.5 14.4
2015-Jul-04 22:40N 54°13' W 135°53'1 1.0 1025.8 14.5
2015-Jul-04 21:40N 54°13' W 135°52'1 0.4 1026.2 14.1
2015-Jul-04 18:40N 54°14' W 135°52'1 0.1 1026.3 14.0
2015-Jul-03 23:40N 54°14' W 135°54'0 0.3 1027.0 14.2
2015-Jul-03 22:40N 54°13' W 135°54'0 0.3 1027.0 14.2
2015-Jul-03 21:40N 54°13' W 135°54'1 0.5 1027.0 14.0
2015-Jul-03 20:40N 54°13' W 135°54'0 0.0 1027.2 14.0
2015-Jul-03 18:40N 54°13' W 135°54'1 0.3 1027.3 13.6
2015-Jul-03 14:40N 54°12' W 135°52'2 0.2 1027.0 13.2
2015-Jul-03 05:40N 54°13' W 135°55'1 0.5 1026.9 13.2
2015-Jul-03 03:40N 54°12' W 135°55'1 0.7 1026.8 13.2
2015-Jul-03 02:40N 54°11' W 135°54'1 0.7 1026.8 13.2
2015-Jul-03 00:40N 54°12' W 135°52'1 0.5 1026.7 13.2
2015-Jul-02 22:40N 54°13' W 135°52'1 0.3 1026.2 13.2
2015-Jul-02 20:40N 54°14' W 135°53'3 0.6 1025.3 13.2
2015-Jul-02 15:40N 54°12' W 135°57'1 0.3 1023.0 13.0
2015-Jul-02 11:40N 54°12' W 135°56'3 0.4 1020.8 13.1
2015-Jul-02 05:40N 54°14' W 135°58'6 0.7 1017.0 13.3
2015-Jul-01 21:40N 54°10' W 136°05'1 0.3 1020.1 13.6
2015-Jul-01 17:40N 54°09' W 136°04'1 0.3 1023.0 13.8
2015-Jul-01 12:40N 54°08' W 136°06'1 0.2 1025.5 13.7
2015-Jul-01 09:40N 54°08' W 136°05'1 0.2 1026.9 13.8
2015-Jul-01 05:40N 54°08' W 136°06'1 0.1 1028.0 13.9
2015-Jun-30 20:40N 54°08' W 136°07'2 0.8 1027.6 13.8
2015-Jun-30 18:40N 54°09' W 136°09'2 0.6 1027.1 13.6
2015-Jun-30 14:40N 54°08' W 136°13'1 0.1 1025.9 13.6
2015-Jun-30 05:40N 54°09' W 136°13'3 0.5 1023.4 13.7
2015-Jun-29 23:40N 54°07' W 136°17'3 0.3 1022.3 13.9
2015-Jun-29 13:40N 54°08' W 136°21'1 0.2 1018.1 13.2
2015-Jun-29 08:40N 54°08' W 136°19'2 0.5 1016.7 13.3
2015-Jun-29 03:40N 54°10' W 136°18'3 0.7 1017.2 13.5
2015-Jun-28 23:40N 54°09' W 136°23'2 0.6 1018.5 13.6
2015-Jun-28 20:40N 54°08' W 136°22'3 0.5 1019.0 13.6
2015-Jun-28 14:40N 54°10' W 136°19'3 0.7 1019.5 13.0
2015-Jun-28 10:40N 54°09' W 136°24'2 0.2 1019.5 13.1
2015-Jun-28 00:40N 54°10' W 136°22'1 0.3 1019.0 13.1
2015-Jun-27 20:40N 54°10' W 136°24'2 0.2 1018.9 12.9
2015-Jun-27 11:40N 54°08' W 136°25'1 0.1 1019.0 12.9
2015-Jun-27 05:40N 54°09' W 136°26'1 0.6 1020.0 13.0
2015-Jun-27 04:40N 54°09' W 136°26'1 0.7 1020.2 13.0
2015-Jun-27 02:40N 54°08' W 136°27'1 0.2 1020.9 13.0
2015-Jun-26 21:40N 54°07' W 136°26'   1022.4 12.9
Track history (hours):
 
Tides and Currents Weather Stations Pressure Air Temp Water Temp Dewpoint Dewpoint Depression Visibility Wind Speed Wind Dir Waves Ship Positions

Drifting buoy 46928

Last reported at 2015-Jul-06 14:40 UTC. Time now 2015-Jul-06 15:39 UTC.
Position N 54°10' W 135°47'.

Barometer 1022.1 mb
Water temperature 13.3 ° C

Date/timePositionNaut miles runAvg speedWind from/ knotsBaromVisibWave heightAir tempDewpointWater temp
2015-Jul-06 14:40N 54°10' W 135°47'2 0.2 1022.1 13.3
2015-Jul-06 02:40N 54°11' W 135°48'2 0.8 1022.6 13.8
2015-Jul-06 00:40N 54°12' W 135°51'1 0.3 1023.3 13.8
2015-Jul-05 21:40N 54°12' W 135°50'2 0.5 1023.7 13.8
2015-Jul-05 18:40N 54°13' W 135°52'0 0.0 1024.4 13.7
2015-Jul-05 17:40N 54°13' W 135°52'0 0.1 1024.3 13.7
2015-Jul-05 11:40N 54°13' W 135°52'3 0.4 1023.9 13.7
2015-Jul-05 04:40N 54°16' W 135°52'1 0.4 1025.3 14.2
2015-Jul-05 02:40N 54°16' W 135°54'2 0.8 1025.1 14.4
2015-Jul-04 23:40N 54°14' W 135°54'1 0.7 1025.5 14.4
2015-Jul-04 22:40N 54°13' W 135°53'1 1.0 1025.8 14.5
2015-Jul-04 21:40N 54°13' W 135°52'1 0.4 1026.2 14.1
2015-Jul-04 18:40N 54°14' W 135°52'1 0.1 1026.3 14.0
2015-Jul-03 23:40N 54°14' W 135°54'0 0.3 1027.0 14.2
2015-Jul-03 22:40N 54°13' W 135°54'0 0.3 1027.0 14.2
2015-Jul-03 21:40N 54°13' W 135°54'1 0.5 1027.0 14.0
2015-Jul-03 20:40N 54°13' W 135°54'0 0.0 1027.2 14.0
2015-Jul-03 18:40N 54°13' W 135°54'1 0.3 1027.3 13.6
2015-Jul-03 14:40N 54°12' W 135°52'2 0.2 1027.0 13.2
2015-Jul-03 05:40N 54°13' W 135°55'1 0.5 1026.9 13.2
2015-Jul-03 03:40N 54°12' W 135°55'1 0.7 1026.8 13.2
2015-Jul-03 02:40N 54°11' W 135°54'1 0.7 1026.8 13.2
2015-Jul-03 00:40N 54°12' W 135°52'1 0.5 1026.7 13.2
2015-Jul-02 22:40N 54°13' W 135°52'1 0.3 1026.2 13.2
2015-Jul-02 20:40N 54°14' W 135°53'3 0.6 1025.3 13.2
2015-Jul-02 15:40N 54°12' W 135°57'1 0.3 1023.0 13.0
2015-Jul-02 11:40N 54°12' W 135°56'3 0.4 1020.8 13.1
2015-Jul-02 05:40N 54°14' W 135°58'6 0.7 1017.0 13.3
2015-Jul-01 21:40N 54°10' W 136°05'1 0.3 1020.1 13.6
2015-Jul-01 17:40N 54°09' W 136°04'1 0.3 1023.0 13.8
2015-Jul-01 12:40N 54°08' W 136°06'1 0.2 1025.5 13.7
2015-Jul-01 09:40N 54°08' W 136°05'1 0.2 1026.9 13.8
2015-Jul-01 05:40N 54°08' W 136°06'1 0.1 1028.0 13.9
2015-Jun-30 20:40N 54°08' W 136°07'2 0.8 1027.6 13.8
2015-Jun-30 18:40N 54°09' W 136°09'2 0.6 1027.1 13.6
2015-Jun-30 14:40N 54°08' W 136°13'1 0.1 1025.9 13.6
2015-Jun-30 05:40N 54°09' W 136°13'3 0.5 1023.4 13.7
2015-Jun-29 23:40N 54°07' W 136°17'3 0.3 1022.3 13.9
2015-Jun-29 13:40N 54°08' W 136°21'1 0.2 1018.1 13.2
2015-Jun-29 08:40N 54°08' W 136°19'2 0.5 1016.7 13.3
2015-Jun-29 03:40N 54°10' W 136°18'3 0.7 1017.2 13.5
2015-Jun-28 23:40N 54°09' W 136°23'2 0.6 1018.5 13.6
2015-Jun-28 20:40N 54°08' W 136°22'3 0.5 1019.0 13.6
2015-Jun-28 14:40N 54°10' W 136°19'3 0.7 1019.5 13.0
2015-Jun-28 10:40N 54°09' W 136°24'2 0.2 1019.5 13.1
2015-Jun-28 00:40N 54°10' W 136°22'1 0.3 1019.0 13.1
2015-Jun-27 20:40N 54°10' W 136°24'2 0.2 1018.9 12.9
2015-Jun-27 11:40N 54°08' W 136°25'1 0.1 1019.0 12.9
2015-Jun-27 05:40N 54°09' W 136°26'1 0.6 1020.0 13.0
2015-Jun-27 04:40N 54°09' W 136°26'1 0.7 1020.2 13.0
2015-Jun-27 02:40N 54°08' W 136°27'1 0.2 1020.9 13.0
2015-Jun-26 21:40N 54°07' W 136°26'   1022.4 12.9

Dump ship's entire track history